Terminal Aerodrome Forecast
Issued by NWS

Home | Current Version | Previous Version | Text Only | Print | Product List | Glossary On
Versions: 1 2 3 4 5 6 7 8 9 10 11 12 13 14 15
000
FTUS43 KGRB 241133
TAFATW
TAF
KATW 241133Z 2412/2512 00000KT 6SM BR OVC040 WS020/27045KT
      TEMPO 2412/2415 4SM -RA BR BKN025
     FM241500 VRB03KT 4SM -RA OVC028 WS020/26035KT
     FM241700 04007KT 4SM -RA OVC014
     FM241900 04010G19KT 4SM -RA OVC007
     FM250600 05011G21KT 5SM -RA OVC005=

USA.gov is the U.S. government's official web portal to all federal, state and local government web resources and services.